Time;durP1;ratioP1;P1;durP2;ratioP2;P2;SDS_P1;SDS_P2;PMS_P1;PMS_P2;Temp;Humidity;BMP_temperature;BMP_pressure;BME280_temperature;BME280_humidity;BME280_pressure;Samples;Min_cycle;Max_cycle;Signal;HPM_P1;HPM_P2
2022/03/12 00:00:34;;;;;;;9.57;4.50;;;6.00;61.00;;;;;;5070267;28;20111;-46
2022/03/12 00:03:00;;;;;;;9.02;4.80;;;5.10;60.50;;;;;;5069925;28;20033;-49
2022/03/12 00:05:32;;;;;;;11.35;5.32;;;5.10;60.30;;;;;;5069863;28;20449;-49
2022/03/12 00:08:00;;;;;;;9.35;4.43;;;5.10;60.70;;;;;;5070214;28;20466;-48
2022/03/12 00:10:31;;;;;;;7.60;4.47;;;5.10;60.50;;;;;;5070012;28;20474;-47
2022/03/12 00:12:57;;;;;;;7.03;3.92;;;6.10;61.30;;;;;;5070576;28;20128;-45
2022/03/12 00:15:23;;;;;;;10.38;5.05;;;6.20;61.50;;;;;;5070074;28;20123;-49
2022/03/12 00:17:48;;;;;;;12.40;5.50;;;5.10;60.80;;;;;;5070464;28;20049;-46
2022/03/12 00:20:18;;;;;;;9.57;4.72;;;5.10;60.80;;;;;;5070285;28;20051;-46
2022/03/12 00:22:47;;;;;;;9.45;5.10;;;4.90;60.90;;;;;;5069931;28;20045;-46
2022/03/12 00:25:19;;;;;;;8.27;4.68;;;5.00;60.50;;;;;;5070182;28;20198;-46
2022/03/12 00:27:45;;;;;;;11.85;4.22;;;5.90;61.40;;;;;;5069630;28;20041;-47
2022/03/12 00:30:17;;;;;;;10.65;4.65;;;4.90;61.00;;;;;;5070324;28;20033;-46
2022/03/12 00:32:43;;;;;;;8.63;4.90;;;4.80;61.10;;;;;;5069945;28;20040;-46
2022/03/12 00:35:10;;;;;;;9.57;4.65;;;4.90;61.30;;;;;;5069975;28;20524;-47
2022/03/12 00:37:37;;;;;;;10.20;4.90;;;5.20;61.70;;;;;;5069902;28;20063;-48
2022/03/12 00:40:05;;;;;;;8.45;4.80;;;6.00;63.00;;;;;;5070129;28;20047;-48
2022/03/12 00:42:31;;;;;;;11.10;5.00;;;4.80;61.90;;;;;;5068984;28;20502;-46
2022/03/12 00:44:57;;;;;;;8.48;4.75;;;4.60;62.60;;;;;;5070020;28;20079;-46
2022/03/12 00:47:23;;;;;;;9.23;5.30;;;4.70;62.20;;;;;;5069727;28;20605;-46
2022/03/12 00:49:50;;;;;;;10.43;5.47;;;4.70;62.50;;;;;;5069918;28;20044;-48
2022/03/12 00:52:16;;;;;;;9.57;5.70;;;4.70;62.60;;;;;;5051510;28;20123;-47
2022/03/12 00:54:43;;;;;;;8.65;4.43;;;4.70;62.80;;;;;;5069789;28;20070;-48
2022/03/12 00:57:11;;;;;;;11.73;5.60;;;4.70;62.30;;;;;;5069761;28;20052;-48
2022/03/12 00:59:42;;;;;;;9.02;5.20;;;4.70;62.40;;;;;;5069070;28;20102;-46
2022/03/12 01:02:11;;;;;;;10.13;5.13;;;4.60;62.40;;;;;;5069799;28;20464;-47
2022/03/12 01:04:37;;;;;;;8.13;5.25;;;5.50;62.70;;;;;;5069488;28;20036;-49
2022/03/12 01:07:03;;;;;;;11.38;5.07;;;4.70;62.00;;;;;;5069751;28;20075;-45
2022/03/12 01:09:29;;;;;;;12.65;4.75;;;4.70;61.90;;;;;;5069828;28;20076;-46
2022/03/12 01:11:55;;;;;;;11.75;4.88;;;4.80;62.00;;;;;;5069604;28;20435;-46
2022/03/12 01:14:21;;;;;;;11.25;5.25;;;6.30;62.90;;;;;;5070366;28;20045;-47
2022/03/12 01:16:47;;;;;;;9.93;4.68;;;4.80;62.00;;;;;;5073221;28;20044;-46
2022/03/12 01:19:13;;;;;;;9.20;5.40;;;4.90;61.90;;;;;;5073786;28;20032;-45
2022/03/12 01:21:39;;;;;;;9.85;5.15;;;4.80;61.70;;;;;;5073574;28;20041;-46
2022/03/12 01:24:04;;;;;;;9.32;5.10;;;4.90;61.90;;;;;;5073501;28;20090;-45
2022/03/12 01:26:30;;;;;;;9.05;4.75;;;5.00;62.00;;;;;;5073406;28;20093;-46
2022/03/12 01:28:56;;;;;;;7.32;4.82;;;4.70;62.10;;;;;;5073658;28;20036;-49
2022/03/12 01:31:22;;;;;;;11.43;5.03;;;4.90;62.20;;;;;;5073128;28;20032;-45
2022/03/12 01:33:48;;;;;;;10.77;5.57;;;4.90;62.90;;;;;;5072880;28;20376;-47
2022/03/12 01:36:14;;;;;;;8.82;5.35;;;4.80;62.10;;;;;;5073323;28;20056;-46
2022/03/12 01:38:52;;;;;;;11.95;4.85;;;4.80;62.10;;;;;;5072736;28;20037;-45
2022/03/12 01:41:26;;;;;;;13.13;5.65;;;6.90;63.30;;;;;;5072486;28;20390;-46
2022/03/12 01:43:57;;;;;;;10.68;5.90;;;5.90;62.60;;;;;;5072478;28;20461;-46
2022/03/12 01:46:30;;;;;;;9.48;4.95;;;4.80;62.00;;;;;;5072433;28;20116;-45
2022/03/12 01:48:59;;;;;;;9.70;5.40;;;4.90;62.10;;;;;;5072984;28;20071;-45
2022/03/12 01:51:27;;;;;;;9.45;5.43;;;4.80;62.20;;;;;;5072571;28;20044;-45
2022/03/12 01:53:53;;;;;;;11.63;5.45;;;4.90;62.30;;;;;;5072162;28;20067;-46
2022/03/12 01:56:19;;;;;;;9.18;4.97;;;4.70;62.30;;;;;;5072997;28;20044;-48
2022/03/12 01:58:49;;;;;;;10.50;5.05;;;4.90;62.40;;;;;;5072532;28;20079;-48
2022/03/12 02:01:15;;;;;;;8.43;4.57;;;6.10;63.20;;;;;;5073016;28;20037;-46
2022/03/12 02:03:42;;;;;;;10.25;4.82;;;5.70;63.00;;;;;;5072385;28;20045;-46
2022/03/12 02:06:08;;;;;;;9.02;5.07;;;4.70;62.40;;;;;;5071412;28;20056;-45
2022/03/12 02:08:33;;;;;;;10.68;5.60;;;4.80;62.50;;;;;;5071915;28;20044;-45
2022/03/12 02:10:59;;;;;;;8.65;5.28;;;4.60;62.50;;;;;;5072907;28;20041;-46
2022/03/12 02:13:26;;;;;;;10.35;5.15;;;4.60;62.50;;;;;;5072917;28;20036;-46
2022/03/12 02:16:05;;;;;;;8.93;5.40;;;4.60;62.40;;;;;;5072501;28;20137;-46
2022/03/12 02:18:31;;;;;;;9.00;5.07;;;5.60;62.70;;;;;;5072437;28;20036;-47
2022/03/12 02:20:58;;;;;;;9.25;5.57;;;4.60;63.30;;;;;;5072455;28;20064;-47
2022/03/12 02:23:24;;;;;;;13.32;5.78;;;4.70;62.80;;;;;;5072328;28;20476;-45
2022/03/12 02:25:50;;;;;;;11.15;5.25;;;4.70;62.60;;;;;;5071511;28;20097;-46
2022/03/12 02:28:18;;;;;;;12.32;5.35;;;4.70;62.40;;;;;;5072275;28;20058;-46
2022/03/12 02:30:51;;;;;;;15.27;5.82;;;4.80;63.00;;;;;;5072518;28;20120;-47
2022/03/12 02:33:27;;;;;;;9.30;5.55;;;4.70;62.60;;;;;;5071893;28;20136;-47
2022/03/12 02:35:53;;;;;;;8.68;5.18;;;4.70;62.40;;;;;;5072091;28;20048;-46
2022/03/12 02:38:21;;;;;;;9.38;5.90;;;5.80;63.00;;;;;;5072420;28;20386;-46
2022/03/12 02:40:48;;;;;;;9.90;5.50;;;4.80;62.50;;;;;;5072092;28;20371;-47
2022/03/12 02:43:19;;;;;;;7.45;4.93;;;4.80;62.40;;;;;;5071136;28;20139;-46
2022/03/12 02:45:48;;;;;;;10.27;4.97;;;4.70;62.30;;;;;;5071360;28;20071;-45
2022/03/12 02:48:14;;;;;;;10.07;5.57;;;4.80;62.40;;;;;;5053930;28;20056;-45
2022/03/12 02:50:43;;;;;;;7.68;5.03;;;4.80;62.20;;;;;;5052918;28;20039;-47
2022/03/12 02:53:09;;;;;;;8.70;5.47;;;4.70;62.30;;;;;;5070800;28;20048;-45
2022/03/12 02:55:41;;;;;;;10.07;5.18;;;4.70;62.60;;;;;;5071554;28;20043;-45
2022/03/12 02:58:10;;;;;;;8.55;5.00;;;4.70;63.40;;;;;;5071825;28;20449;-47
2022/03/12 03:00:37;;;;;;;10.82;5.63;;;4.60;62.70;;;;;;5071079;28;20048;-46
2022/03/12 03:03:06;;;;;;;9.98;4.90;;;4.70;62.80;;;;;;5070676;28;20546;-45
2022/03/12 03:05:47;;;;;;;10.60;5.55;;;4.80;62.80;;;;;;5071656;28;20036;-46
2022/03/12 03:08:21;;;;;;;11.27;5.95;;;4.70;63.00;;;;;;5071168;28;20047;-46
2022/03/12 03:10:52;;;;;;;8.68;5.97;;;4.60;63.00;;;;;;5071419;28;20435;-49
2022/03/12 03:13:18;;;;;;;9.75;5.75;;;4.60;63.00;;;;;;5071349;28;20552;-47
2022/03/12 03:15:47;;;;;;;9.35;4.90;;;4.70;63.00;;;;;;5070992;28;20040;-46
2022/03/12 03:18:17;;;;;;;9.38;4.85;;;4.60;63.10;;;;;;5071284;28;20105;-48
2022/03/12 03:20:44;;;;;;;9.55;5.95;;;4.80;63.30;;;;;;5071276;28;20051;-48
2022/03/12 03:23:10;;;;;;;10.52;5.65;;;4.60;63.10;;;;;;5071540;28;20051;-46
2022/03/12 03:25:39;;;;;;;11.32;5.57;;;4.60;63.10;;;;;;5053420;28;20036;-46
2022/03/12 03:28:06;;;;;;;8.90;5.35;;;4.70;63.10;;;;;;5071128;28;20090;-47
2022/03/12 03:30:37;;;;;;;9.15;5.05;;;4.70;63.20;;;;;;5071321;28;20496;-48
2022/03/12 03:33:08;;;;;;;8.60;5.40;;;4.70;63.10;;;;;;5071164;28;20899;-45
2022/03/12 03:35:34;;;;;;;7.97;5.20;;;4.70;63.40;;;;;;5070458;28;20499;-46
2022/03/12 03:37:59;;;;;;;8.55;4.95;;;5.60;64.00;;;;;;5052217;28;20059;-49
2022/03/12 03:40:26;;;;;;;9.25;4.95;;;4.60;63.40;;;;;;5070412;28;20047;-45
2022/03/12 03:42:52;;;;;;;10.90;4.88;;;4.70;64.10;;;;;;5069721;28;20044;-47
2022/03/12 03:45:21;;;;;;;10.18;5.63;;;4.50;63.60;;;;;;5070994;28;20434;-46
2022/03/12 03:47:47;;;;;;;9.63;5.15;;;4.50;63.70;;;;;;5070848;28;20044;-47
2022/03/12 03:50:13;;;;;;;9.23;5.28;;;4.50;63.60;;;;;;5070681;28;20120;-45
2022/03/12 03:52:39;;;;;;;9.77;5.85;;;4.70;63.40;;;;;;5070845;28;20161;-48
2022/03/12 03:55:06;;;;;;;10.15;5.20;;;4.70;63.60;;;;;;5070606;28;20072;-46
2022/03/12 03:57:31;;;;;;;10.57;5.05;;;4.70;63.80;;;;;;5070257;28;20058;-47
2022/03/12 03:59:57;;;;;;;10.23;5.65;;;4.70;63.80;;;;;;5070249;28;20040;-46
2022/03/12 04:02:23;;;;;;;9.32;5.03;;;4.60;63.80;;;;;;5070458;28;20072;-49
2022/03/12 04:04:49;;;;;;;11.18;5.45;;;4.40;63.70;;;;;;5070810;28;20039;-46
2022/03/12 04:07:15;;;;;;;10.68;5.38;;;4.50;63.70;;;;;;5069385;28;20339;-46
2022/03/12 04:09:41;;;;;;;10.07;5.38;;;4.60;63.90;;;;;;5069919;28;20036;-48
2022/03/12 04:12:07;;;;;;;8.05;4.88;;;4.40;64.30;;;;;;5070011;28;20040;-46
2022/03/12 04:14:33;;;;;;;8.52;4.55;;;4.50;64.00;;;;;;5069393;28;20044;-45
2022/03/12 04:16:58;;;;;;;9.52;5.35;;;4.30;63.90;;;;;;5069811;28;20119;-50
2022/03/12 04:19:33;;;;;;;8.10;4.68;;;4.30;63.90;;;;;;5070178;28;20094;-46
2022/03/12 04:21:58;;;;;;;9.25;4.82;;;4.40;64.00;;;;;;5070025;28;20055;-47
2022/03/12 04:24:25;;;;;;;11.90;5.45;;;4.30;64.10;;;;;;5070093;28;20048;-46
2022/03/12 04:26:51;;;;;;;8.48;5.50;;;4.20;64.10;;;;;;5070293;28;20111;-47
2022/03/12 04:29:18;;;;;;;8.52;4.90;;;4.20;64.30;;;;;;5070062;28;20040;-48
2022/03/12 04:31:47;;;;;;;7.47;4.70;;;4.20;64.60;;;;;;5070001;28;20076;-45
2022/03/12 04:34:13;;;;;;;7.93;4.93;;;4.30;67.10;;;;;;5069810;28;20089;-45
2022/03/12 04:36:44;;;;;;;9.07;5.15;;;5.20;74.30;;;;;;5070143;28;20053;-46
2022/03/12 04:39:10;;;;;;;10.18;4.85;;;4.30;73.40;;;;;;5069956;28;20044;-46
2022/03/12 04:41:39;;;;;;;8.32;4.72;;;4.10;72.00;;;;;;5069772;28;20068;-46
2022/03/12 04:44:07;;;;;;;10.18;5.22;;;4.10;71.60;;;;;;5050450;28;20052;-45
2022/03/12 04:46:34;;;;;;;11.15;5.07;;;4.30;71.50;;;;;;5069409;28;20268;-46
2022/03/12 04:49:00;;;;;;;9.82;5.20;;;4.00;71.20;;;;;;5068986;28;20040;-47
2022/03/12 04:51:28;;;;;;;7.93;4.47;;;3.90;70.90;;;;;;5069428;28;20512;-45
2022/03/12 04:53:58;;;;;;;8.52;4.63;;;4.50;70.60;;;;;;5069032;28;20051;-48
2022/03/12 04:56:25;;;;;;;7.45;4.50;;;4.00;68.60;;;;;;5051649;28;20656;-45
2022/03/12 04:58:53;;;;;;;9.35;5.32;;;3.90;67.80;;;;;;5070017;28;20036;-48
2022/03/12 05:01:20;;;;;;;9.63;5.13;;;3.60;64.90;;;;;;5070030;28;20060;-48
2022/03/12 05:03:47;;;;;;;8.50;4.93;;;3.60;65.00;;;;;;5070063;28;20047;-46
2022/03/12 05:06:13;;;;;;;7.45;4.70;;;3.60;65.00;;;;;;5070116;28;20044;-47
2022/03/12 05:08:39;;;;;;;8.43;4.72;;;3.60;64.90;;;;;;5070028;28;20036;-45
2022/03/12 05:11:05;;;;;;;11.68;5.07;;;3.60;65.00;;;;;;5069989;28;20039;-46
2022/03/12 05:13:32;;;;;;;9.13;4.80;;;3.60;64.90;;;;;;5070059;28;20055;-45
2022/03/12 05:16:01;;;;;;;9.30;5.03;;;3.60;64.90;;;;;;5069738;28;20076;-46
2022/03/12 05:18:28;;;;;;;8.32;5.25;;;3.50;64.80;;;;;;5070005;28;20033;-46
2022/03/12 05:20:54;;;;;;;8.27;4.00;;;3.50;65.00;;;;;;5069563;28;20063;-45
2022/03/12 05:23:21;;;;;;;8.63;4.43;;;3.40;65.10;;;;;;5069602;28;20044;-46
2022/03/12 05:25:49;;;;;;;7.78;4.85;;;3.10;65.00;;;;;;5069101;28;20045;-45
2022/03/12 05:28:25;;;;;;;10.30;4.45;;;3.20;65.20;;;;;;5069195;28;20037;-45
2022/03/12 05:30:56;;;;;;;8.40;4.22;;;3.30;65.30;;;;;;5069645;28;20094;-46
2022/03/12 05:33:22;;;;;;;9.50;5.22;;;3.30;65.50;;;;;;5069621;28;20036;-46
2022/03/12 05:35:54;;;;;;;6.90;4.70;;;3.20;65.50;;;;;;5069990;28;20124;-46
2022/03/12 05:38:24;;;;;;;9.90;4.47;;;3.10;66.20;;;;;;5069844;28;20044;-49
2022/03/12 05:40:51;;;;;;;9.60;4.47;;;3.00;65.70;;;;;;5069686;28;20305;-46
2022/03/12 05:43:17;;;;;;;7.40;4.80;;;2.90;66.00;;;;;;5068964;28;20135;-47
2022/03/12 05:45:45;;;;;;;7.60;4.40;;;2.90;66.10;;;;;;5069740;28;20585;-46
2022/03/12 05:48:12;;;;;;;8.70;4.22;;;2.80;66.20;;;;;;5069751;28;20059;-49
2022/03/12 05:50:39;;;;;;;8.10;4.57;;;2.80;66.40;;;;;;5069143;28;20053;-46
2022/03/12 05:53:08;;;;;;;10.35;4.15;;;2.80;66.60;;;;;;5069125;28;20359;-46
2022/03/12 05:55:36;;;;;;;12.25;5.72;;;2.70;66.90;;;;;;5069394;28;20059;-45
2022/03/12 05:58:02;;;;;;;12.15;4.45;;;2.70;67.20;;;;;;5069411;28;20087;-46
2022/03/12 06:00:27;;;;;;;8.55;4.90;;;2.50;67.10;;;;;;5068984;28;20076;-46
2022/03/12 06:02:53;;;;;;;10.35;4.97;;;2.70;67.30;;;;;;5072318;28;20048;-46
2022/03/12 06:05:21;;;;;;;7.35;4.03;;;2.70;67.60;;;;;;5072775;28;20087;-45
2022/03/12 06:07:49;;;;;;;9.90;4.50;;;2.80;67.60;;;;;;5072996;28;20036;-46
2022/03/12 06:10:18;;;;;;;7.68;4.85;;;2.80;67.40;;;;;;5072468;28;20028;-48
2022/03/12 06:12:45;;;;;;;8.80;4.97;;;2.80;67.50;;;;;;5054596;28;20063;-48
2022/03/12 06:15:14;;;;;;;9.52;4.68;;;2.80;67.60;;;;;;5072478;28;20052;-46
2022/03/12 06:17:40;;;;;;;8.63;4.57;;;2.80;67.70;;;;;;5072816;28;20093;-45
2022/03/12 06:20:10;;;;;;;7.93;4.18;;;2.60;67.60;;;;;;5072201;28;20040;-46
2022/03/12 06:22:37;;;;;;;7.80;4.28;;;3.00;67.80;;;;;;5072091;28;20052;-45
2022/03/12 06:25:05;;;;;;;9.73;4.68;;;3.10;67.70;;;;;;5072201;28;20509;-46
2022/03/12 06:27:31;;;;;;;7.72;4.38;;;3.30;67.40;;;;;;5072545;28;20078;-46
2022/03/12 06:29:57;;;;;;;7.22;4.65;;;3.60;67.10;;;;;;5072251;28;20037;-50
2022/03/12 06:32:23;;;;;;;11.45;4.50;;;3.80;66.80;;;;;;5072622;28;20109;-46
2022/03/12 06:34:49;;;;;;;8.70;4.60;;;3.80;66.60;;;;;;5072316;28;20040;-46
2022/03/12 06:37:15;;;;;;;7.95;4.45;;;3.10;66.00;;;;;;5072126;28;20102;-46
2022/03/12 06:39:41;;;;;;;7.78;4.32;;;3.90;66.40;;;;;;5071765;28;20052;-48
2022/03/12 06:42:07;;;;;;;8.63;4.25;;;3.90;66.20;;;;;;5071856;28;20032;-47
2022/03/12 06:44:34;;;;;;;8.30;4.05;;;4.00;66.20;;;;;;5071624;28;20056;-47
2022/03/12 06:47:01;;;;;;;10.63;5.60;;;3.80;65.90;;;;;;5072463;28;20055;-48
2022/03/12 06:49:27;;;;;;;8.45;5.03;;;4.10;65.80;;;;;;5071367;28;20045;-48
2022/03/12 06:51:54;;;;;;;10.43;4.15;;;4.10;65.50;;;;;;5071861;28;20036;-48
2022/03/12 06:54:19;;;;;;;7.95;4.85;;;4.20;65.60;;;;;;5071876;28;20044;-45
2022/03/12 06:56:45;;;;;;;8.15;4.78;;;4.20;65.60;;;;;;5071972;28;20063;-45
2022/03/12 06:59:12;;;;;;;8.32;4.75;;;4.20;65.60;;;;;;5071764;28;20036;-48
2022/03/12 07:01:38;;;;;;;8.00;4.55;;;4.20;65.50;;;;;;5071652;28;20147;-46
2022/03/12 07:04:03;;;;;;;9.68;4.40;;;4.30;65.50;;;;;;5071369;28;20565;-47
2022/03/12 07:06:29;;;;;;;7.70;4.55;;;4.30;65.50;;;;;;5071535;28;20045;-45
2022/03/12 07:08:55;;;;;;;7.20;4.05;;;4.40;65.60;;;;;;5070616;28;20032;-46
2022/03/12 07:11:21;;;;;;;10.10;4.38;;;4.50;65.30;;;;;;5070239;28;20048;-48
2022/03/12 07:13:47;;;;;;;12.98;4.72;;;4.30;65.10;;;;;;5070267;28;20055;-45
2022/03/12 07:16:13;;;;;;;9.13;4.93;;;4.60;65.30;;;;;;5070132;28;20582;-46
2022/03/12 07:18:38;;;;;;;9.10;4.45;;;4.70;65.10;;;;;;5070393;28;20123;-46
2022/03/12 07:21:05;;;;;;;8.00;4.15;;;4.80;65.10;;;;;;5070645;28;20055;-45
2022/03/12 07:23:31;;;;;;;8.27;4.20;;;4.90;65.10;;;;;;5070058;28;20509;-47
2022/03/12 07:25:57;;;;;;;7.57;4.70;;;5.10;65.10;;;;;;5052894;28;20120;-46
2022/03/12 07:28:23;;;;;;;11.20;4.78;;;5.10;65.00;;;;;;5071016;28;20039;-49
2022/03/12 07:30:49;;;;;;;8.95;4.60;;;5.10;64.80;;;;;;5071330;28;20379;-47
2022/03/12 07:33:15;;;;;;;7.95;4.50;;;5.30;64.60;;;;;;5071383;28;20036;-47
2022/03/12 07:35:40;;;;;;;9.95;4.10;;;5.70;64.60;;;;;;5070754;28;20037;-49
2022/03/12 07:38:06;;;;;;;10.75;3.95;;;5.90;64.10;;;;;;5071072;28;20043;-49
2022/03/12 07:40:33;;;;;;;10.02;4.45;;;6.10;63.60;;;;;;5070507;28;20485;-46
2022/03/12 07:42:59;;;;;;;13.15;5.68;;;6.00;63.10;;;;;;5070220;28;20045;-48
2022/03/12 07:45:25;;;;;;;11.63;4.45;;;6.30;62.50;;;;;;5070726;28;20105;-49
2022/03/12 07:47:52;;;;;;;7.97;4.70;;;6.30;62.60;;;;;;5070472;28;20529;-46
2022/03/12 07:50:19;;;;;;;8.15;5.00;;;6.70;62.70;;;;;;5070856;28;20052;-47
2022/03/12 07:52:45;;;;;;;8.73;5.32;;;6.60;62.80;;;;;;5070698;28;20040;-48
2022/03/12 07:55:12;;;;;;;10.23;4.50;;;6.20;62.70;;;;;;5070504;28;20098;-46
2022/03/12 07:57:41;;;;;;;9.02;4.85;;;6.30;62.70;;;;;;5070463;28;20090;-49
2022/03/12 08:00:10;;;;;;;10.88;5.00;;;6.90;62.70;;;;;;5070321;28;20098;-47
2022/03/12 08:02:36;;;;;;;11.25;5.50;;;6.70;62.50;;;;;;5070094;28;20046;-47
2022/03/12 08:05:02;;;;;;;9.18;5.07;;;8.20;62.90;;;;;;5070290;28;20396;-47
2022/03/12 08:07:29;;;;;;;8.38;4.78;;;7.90;61.80;;;;;;5069825;28;20040;-48
2022/03/12 08:09:59;;;;;;;9.95;4.63;;;9.40;61.10;;;;;;5070463;28;20041;-46
2022/03/12 08:12:26;;;;;;;11.43;5.03;;;8.60;59.90;;;;;;5070827;28;20044;-48
2022/03/12 08:14:53;;;;;;;9.52;5.20;;;8.60;59.60;;;;;;5070265;28;20124;-45
2022/03/12 08:17:19;;;;;;;12.00;4.85;;;9.20;59.40;;;;;;5070426;28;20556;-48
2022/03/12 08:19:46;;;;;;;11.23;5.50;;;9.40;58.10;;;;;;5069884;28;20044;-46
2022/03/12 08:22:13;;;;;;;7.70;4.60;;;9.80;58.50;;;;;;5070341;28;20050;-46
2022/03/12 08:24:38;;;;;;;8.93;4.57;;;10.20;57.50;;;;;;5069005;28;20490;-46
2022/03/12 08:27:05;;;;;;;9.10;5.85;;;10.50;57.20;;;;;;5070112;28;20048;-48
2022/03/12 08:29:31;;;;;;;10.45;4.90;;;10.40;56.90;;;;;;5070039;28;20094;-49
2022/03/12 08:31:57;;;;;;;11.13;5.10;;;10.30;56.70;;;;;;5069825;28;20083;-48
2022/03/12 08:34:23;;;;;;;13.98;6.45;;;10.20;56.50;;;;;;5070242;28;20068;-46
2022/03/12 08:36:49;;;;;;;9.68;5.78;;;10.30;55.60;;;;;;5069484;28;20051;-47
2022/03/12 08:39:15;;;;;;;13.90;6.13;;;10.20;55.40;;;;;;5069777;28;20036;-46
2022/03/12 08:41:42;;;;;;;10.88;5.60;;;10.80;56.10;;;;;;5069396;28;20132;-48
2022/03/12 08:44:09;;;;;;;11.05;5.00;;;11.00;55.70;;;;;;5069471;28;20052;-47
2022/03/12 08:46:36;;;;;;;8.85;5.32;;;11.30;55.20;;;;;;5069856;28;20036;-48
2022/03/12 08:49:03;;;;;;;8.10;5.53;;;11.90;54.70;;;;;;5069993;28;20045;-47
2022/03/12 08:51:29;;;;;;;10.80;5.72;;;12.60;53.90;;;;;;5069802;28;20072;-46
2022/03/12 08:53:54;;;;;;;10.02;5.50;;;13.30;53.00;;;;;;5069414;28;20490;-48
2022/03/12 08:56:20;;;;;;;10.88;6.10;;;13.90;52.00;;;;;;5069813;28;20045;-47
2022/03/12 08:58:47;;;;;;;10.98;6.18;;;14.30;50.90;;;;;;5069644;28;20043;-46
2022/03/12 09:01:13;;;;;;;8.50;6.05;;;14.50;50.80;;;;;;5069725;28;20045;-47
2022/03/12 09:03:39;;;;;;;9.93;5.30;;;14.40;50.80;;;;;;5069554;28;20040;-48
2022/03/12 09:06:05;;;;;;;11.13;6.03;;;14.10;50.90;;;;;;5069999;28;20202;-47
2022/03/12 09:08:31;;;;;;;11.80;5.90;;;13.90;51.70;;;;;;5069421;28;20111;-49
2022/03/12 09:10:58;;;;;;;7.80;5.55;;;13.80;52.40;;;;;;5069524;28;20040;-48
2022/03/12 09:13:24;;;;;;;11.50;6.45;;;13.80;52.30;;;;;;5069488;28;20091;-49
2022/03/12 09:15:51;;;;;;;8.57;5.97;;;14.00;53.20;;;;;;5069392;28;20076;-47
2022/03/12 09:18:17;;;;;;;10.07;5.38;;;14.40;53.20;;;;;;5069654;28;20653;-50
2022/03/12 09:20:47;;;;;;;8.73;5.75;;;15.00;52.80;;;;;;5069464;28;20184;-50
2022/03/12 09:23:18;;;;;;;8.93;5.95;;;15.50;51.90;;;;;;5069390;28;20114;-51
2022/03/12 09:25:45;;;;;;;11.48;6.57;;;15.80;50.10;;;;;;5069085;28;20048;-52
2022/03/12 09:28:11;;;;;;;7.88;5.60;;;16.20;51.30;;;;;;5069352;28;20679;-47
2022/03/12 09:30:37;;;;;;;13.45;5.97;;;16.50;51.20;;;;;;5069540;28;20040;-48
2022/03/12 09:33:05;;;;;;;8.63;5.82;;;16.70;51.10;;;;;;5069727;28;20040;-47
2022/03/12 09:35:31;;;;;;;7.93;5.65;;;17.10;50.80;;;;;;5070700;28;20055;-46
2022/03/12 09:37:58;;;;;;;8.75;5.97;;;17.30;50.70;;;;;;5073295;28;20044;-47
2022/03/12 09:40:25;;;;;;;11.32;6.35;;;17.80;50.10;;;;;;5073375;28;20135;-49
2022/03/12 09:42:51;;;;;;;14.15;6.05;;;18.30;49.50;;;;;;5072901;28;20055;-47
2022/03/12 09:45:19;;;;;;;13.68;5.65;;;18.60;49.00;;;;;;5073422;28;20040;-51
2022/03/12 09:47:45;;;;;;;9.38;5.40;;;18.80;49.40;;;;;;5072263;28;20047;-47
2022/03/12 09:50:11;;;;;;;9.13;5.50;;;19.00;48.80;;;;;;5069734;28;20040;-45
2022/03/12 09:52:40;;;;;;;12.32;7.30;;;19.50;48.80;;;;;;5068815;28;20040;-51
2022/03/12 09:55:07;;;;;;;9.35;6.35;;;19.80;48.00;;;;;;5068673;28;20052;-46
2022/03/12 09:57:34;;;;;;;9.45;6.32;;;20.20;47.50;;;;;;5072042;28;20449;-46
2022/03/12 10:00:00;;;;;;;12.13;6.07;;;19.80;46.80;;;;;;5071098;28;20072;-59
2022/03/12 10:02:34;;;;;;;11.38;6.50;;;19.70;47.60;;;;;;5071906;28;20045;-48
2022/03/12 10:05:00;;;;;;;8.95;6.50;;;19.80;47.40;;;;;;5071533;28;20071;-50
2022/03/12 10:07:26;;;;;;;9.70;6.32;;;19.60;47.60;;;;;;5071853;28;20094;-57
2022/03/12 10:09:51;;;;;;;7.35;5.43;;;19.30;48.60;;;;;;5071448;28;20044;-58
2022/03/12 10:12:19;;;;;;;12.48;6.53;;;19.00;49.40;;;;;;5071801;28;20032;-53
2022/03/12 10:14:48;;;;;;;12.25;5.95;;;18.60;50.50;;;;;;5071869;28;20340;-51
2022/03/12 10:17:23;;;;;;;8.32;5.50;;;18.80;51.20;;;;;;5072012;28;20051;-56
2022/03/12 10:19:48;;;;;;;8.35;5.75;;;19.00;51.20;;;;;;5071323;28;20048;-56
2022/03/12 10:22:15;;;;;;;12.43;6.13;;;19.00;51.80;;;;;;5071549;28;20040;-58
2022/03/12 10:24:41;;;;;;;10.68;6.63;;;19.00;51.40;;;;;;5071600;28;20067;-56
2022/03/12 10:27:07;;;;;;;9.68;6.38;;;19.30;51.90;;;;;;5070726;28;20536;-57
2022/03/12 10:29:35;;;;;;;9.20;5.40;;;19.40;52.00;;;;;;5071339;28;20044;-51
2022/03/12 10:32:24;;;;;;;9.98;5.10;;;19.40;52.10;;;;;;5070587;28;20043;-52
2022/03/12 10:34:55;;;;;;;8.85;6.13;;;19.40;52.00;;;;;;5070753;28;20040;-55
2022/03/12 10:37:26;;;;;;;9.35;5.28;;;19.40;52.50;;;;;;5071027;28;20024;-57
2022/03/12 10:40:15;;;;;;;7.72;5.85;;;19.50;52.90;;;;;;5071466;28;20040;-55
2022/03/12 10:43:05;;;;;;;8.85;5.47;;;19.80;53.00;;;;;;5070750;28;20136;-58
2022/03/12 10:45:45;;;;;;;8.57;5.95;;;20.20;52.30;;;;;;5071040;28;20045;-57
2022/03/12 10:48:12;;;;;;;8.10;5.72;;;20.20;52.30;;;;;;5070465;28;20040;-52
2022/03/12 10:50:41;;;;;;;7.13;5.78;;;20.40;52.50;;;;;;5052696;28;20117;-55
2022/03/12 10:53:09;;;;;;;9.40;5.82;;;20.60;52.20;;;;;;5053165;28;20045;-55
2022/03/12 10:55:46;;;;;;;8.77;5.32;;;20.70;52.20;;;;;;5070639;28;20051;-50
2022/03/12 10:58:15;;;;;;;8.35;6.07;;;20.50;52.40;;;;;;5070605;28;20695;-56
2022/03/12 11:00:50;;;;;;;7.88;5.32;;;20.10;52.40;;;;;;5071243;28;20133;-53
2022/03/12 11:03:20;;;;;;;12.27;5.18;;;19.90;53.50;;;;;;5070806;28;20051;-54
2022/03/12 11:05:46;;;;;;;11.30;5.68;;;19.60;53.20;;;;;;5070041;28;20040;-49
2022/03/12 11:08:31;;;;;;;9.02;5.90;;;19.20;53.80;;;;;;5035233;28;20040;-49
2022/03/12 11:10:59;;;;;;;8.52;5.97;;;18.70;54.40;;;;;;5070506;28;20041;-53
2022/03/12 11:13:44;;;;;;;9.40;6.18;;;18.20;55.30;;;;;;5070668;28;20059;-55
2022/03/12 11:16:14;;;;;;;9.75;6.68;;;17.60;56.60;;;;;;5070539;28;20060;-56
2022/03/12 11:18:54;;;;;;;9.25;6.50;;;17.00;57.70;;;;;;5070284;28;20067;-56
2022/03/12 11:21:33;;;;;;;12.75;6.32;;;16.40;58.90;;;;;;5070093;28;20059;-49
2022/03/12 11:24:17;;;;;;;12.32;6.43;;;16.10;60.10;;;;;;5070352;28;20044;-54
2022/03/12 11:26:55;;;;;;;9.95;6.70;;;16.10;60.80;;;;;;5069976;28;20037;-52
2022/03/12 11:29:23;;;;;;;10.27;6.95;;;15.90;60.50;;;;;;5070682;28;20036;-52
2022/03/12 11:31:56;;;;;;;10.55;6.88;;;15.80;61.30;;;;;;5070374;28;20079;-56
2022/03/12 11:34:26;;;;;;;11.18;6.68;;;15.70;61.90;;;;;;5070116;28;20044;-55
2022/03/12 11:36:55;;;;;;;10.18;6.18;;;15.60;62.20;;;;;;5070258;28;20094;-54
2022/03/12 11:39:42;;;;;;;11.05;6.45;;;15.50;62.70;;;;;;5069606;28;20127;-47
2022/03/12 11:42:15;;;;;;;11.20;7.00;;;15.50;63.60;;;;;;5069969;28;20044;-54
2022/03/12 11:45:00;;;;;;;9.40;6.22;;;15.40;63.00;;;;;;5070013;28;20088;-53
2022/03/12 11:47:32;;;;;;;11.93;6.95;;;15.30;63.30;;;;;;5069834;28;20045;-54
2022/03/12 11:50:01;;;;;;;10.80;6.10;;;15.30;63.80;;;;;;5070188;28;20111;-52
2022/03/12 11:52:27;;;;;;;10.57;6.30;;;15.20;63.70;;;;;;5069655;28;20430;-53
2022/03/12 11:54:57;;;;;;;10.20;7.47;;;15.10;63.70;;;;;;5069753;28;20075;-48
2022/03/12 11:57:27;;;;;;;10.82;7.07;;;15.00;64.00;;;;;;5069657;28;20929;-55
2022/03/12 11:59:54;;;;;;;11.07;7.30;;;15.00;64.90;;;;;;5068904;28;20040;-54
2022/03/12 12:02:36;;;;;;;9.45;6.22;;;14.80;65.20;;;;;;5069574;28;20052;-57
2022/03/12 12:05:04;;;;;;;9.75;6.18;;;14.60;65.90;;;;;;5070002;28;20063;-55
2022/03/12 12:07:32;;;;;;;10.85;7.10;;;14.50;66.30;;;;;;5069886;28;20087;-53
2022/03/12 12:09:57;;;;;;;11.85;6.32;;;14.30;67.10;;;;;;5069892;28;20082;-56
2022/03/12 12:12:27;;;;;;;12.40;6.28;;;14.20;67.30;;;;;;5069264;28;20641;-50
2022/03/12 12:14:56;;;;;;;9.30;6.30;;;14.10;67.60;;;;;;5069802;28;20044;-51
2022/03/12 12:17:21;;;;;;;8.88;6.20;;;14.10;68.20;;;;;;5051703;28;20161;-57
2022/03/12 12:19:47;;;;;;;10.02;6.07;;;14.00;68.70;;;;;;5069593;28;20753;-50
2022/03/12 12:22:14;;;;;;;9.32;6.13;;;14.00;69.20;;;;;;5068680;28;20045;-48
2022/03/12 12:24:42;;;;;;;8.63;5.45;;;14.10;69.50;;;;;;5064250;28;20041;-48
2022/03/12 12:27:55;;;;;;;7.80;5.10;;;14.20;70.10;;;;;;5060106;28;20093;-57
2022/03/12 12:30:38;;;;;;;8.75;5.10;;;14.50;71.00;;;;;;5067929;28;20051;-50
2022/03/12 12:33:14;;;;;;;;;;;14.70;69.60;;;;;;5069750;28;20367;-54
2022/03/12 12:35:40;;;;;;;9.35;5.25;;;14.80;69.60;;;;;;5069195;28;19921;-57
2022/03/12 12:38:09;;;;;;;10.15;5.15;;;15.00;68.80;;;;;;5068449;28;20055;-57
2022/03/12 12:40:46;;;;;;;9.27;5.07;;;15.10;69.00;;;;;;5069178;28;20037;-57
2022/03/12 12:43:14;;;;;;;9.30;5.57;;;15.10;69.10;;;;;;5068726;28;20562;-57
2022/03/12 12:46:08;;;;;;;9.25;6.00;;;15.10;69.00;;;;;;5069697;28;20048;-47
2022/03/12 12:48:43;;;;;;;7.55;4.82;;;15.30;69.40;;;;;;5069364;28;20079;-57
2022/03/12 12:51:16;;;;;;;11.00;6.35;;;15.10;69.10;;;;;;5068651;28;20040;-55
2022/03/12 12:53:45;;;;;;;13.85;5.95;;;15.20;69.30;;;;;;5068914;28;20048;-53
2022/03/12 12:56:19;;;;;;;10.20;5.80;;;15.30;69.10;;;;;;5069184;28;20044;-52